createdAt,value
2018-03-20T00:00:32.841Z,1019.9
2018-03-20T00:05:32.810Z,1019.8
2018-03-20T00:10:32.857Z,1019.8
2018-03-20T00:15:32.884Z,1019.7
2018-03-20T00:20:32.949Z,1019.8
2018-03-20T00:25:32.766Z,1019.8
2018-03-20T00:30:32.996Z,1019.7
2018-03-20T00:35:32.667Z,1019.7
2018-03-20T00:40:32.951Z,1019.8
2018-03-20T00:45:32.823Z,1019.7
2018-03-20T00:50:32.664Z,1019.8
2018-03-20T00:55:32.755Z,1019.8
2018-03-20T01:00:32.882Z,1019.8
2018-03-20T01:05:32.801Z,1019.7
2018-03-20T01:10:32.696Z,1019.7
2018-03-20T01:15:32.641Z,1019.5
2018-03-20T01:20:32.603Z,1019.7
2018-03-20T01:25:32.788Z,1019.6
2018-03-20T01:30:32.920Z,1019.7
2018-03-20T01:35:32.797Z,1019.6
2018-03-20T01:40:32.748Z,1019.6
2018-03-20T01:45:32.894Z,1019.5
2018-03-20T01:50:32.883Z,1019.5
2018-03-20T01:55:32.717Z,1019.4
2018-03-20T02:00:32.785Z,1019.3
2018-03-20T02:05:32.564Z,1019.3
2018-03-20T02:10:32.639Z,1019.3
2018-03-20T02:15:32.763Z,1019.3
2018-03-20T02:20:32.424Z,1019.1
2018-03-20T02:25:32.683Z,1019.1
2018-03-20T02:30:32.387Z,1019.2
2018-03-20T02:35:32.518Z,1019.1
2018-03-20T02:40:32.546Z,1019.1
2018-03-20T02:45:32.409Z,1019
2018-03-20T02:50:32.361Z,1019.1
2018-03-20T02:55:32.726Z,1019
2018-03-20T03:00:32.771Z,1019
2018-03-20T03:05:32.754Z,1018.9
2018-03-20T03:10:32.960Z,1018.9
2018-03-20T03:15:32.646Z,1018.9
2018-03-20T03:20:32.527Z,1018.8
2018-03-20T03:25:32.745Z,1018.8
2018-03-20T03:30:32.527Z,1018.9
2018-03-20T03:35:32.322Z,1018.9
2018-03-20T03:40:32.434Z,1018.8
2018-03-20T03:45:32.701Z,1018.8
2018-03-20T03:50:32.386Z,1018.8
2018-03-20T03:55:32.323Z,1018.8
2018-03-20T04:00:32.500Z,1018.9
2018-03-20T04:05:32.602Z,1018.9
2018-03-20T04:10:32.510Z,1018.9
2018-03-20T04:15:32.614Z,1018.9
2018-03-20T04:20:32.295Z,1018.9
2018-03-20T04:25:32.303Z,1018.9
2018-03-20T04:30:32.381Z,1018.9
2018-03-20T04:35:32.194Z,1018.9
2018-03-20T04:40:32.515Z,1018.9
2018-03-20T04:45:32.488Z,1018.9
2018-03-20T04:50:32.490Z,1019
2018-03-20T04:55:32.430Z,1018.9
2018-03-20T05:00:32.665Z,1019
2018-03-20T05:05:32.320Z,1019.1
2018-03-20T05:10:32.456Z,1019.1
2018-03-20T05:15:32.276Z,1019.1
2018-03-20T05:20:32.216Z,1019.3
2018-03-20T05:25:32.283Z,1019.3
2018-03-20T05:30:32.511Z,1019.4
2018-03-20T05:35:32.212Z,1019.4
2018-03-20T05:40:32.145Z,1019.4
2018-03-20T05:45:32.541Z,1019.4
2018-03-20T05:50:32.199Z,1019.5
2018-03-20T05:55:32.074Z,1019.5
2018-03-20T06:00:32.406Z,1019.6
2018-03-20T06:05:32.364Z,1019.7
2018-03-20T06:10:32.144Z,1019.8
2018-03-20T06:15:32.397Z,1019.9
2018-03-20T06:20:32.451Z,1020
2018-03-20T06:25:32.098Z,1020
2018-03-20T06:30:32.199Z,1020.1
2018-03-20T06:35:32.334Z,1020.1
2018-03-20T06:40:32.172Z,1020.3
2018-03-20T06:45:32.037Z,1020.4
2018-03-20T06:50:32.060Z,1020.5
2018-03-20T06:55:32.251Z,1020.6
2018-03-20T07:00:32.207Z,1020.7
2018-03-20T07:05:32.409Z,1020.7
2018-03-20T07:10:32.364Z,1020.8
2018-03-20T07:15:32.313Z,1020.9
2018-03-20T07:20:32.130Z,1021
2018-03-20T07:25:32.026Z,1021
2018-03-20T07:30:32.188Z,1021.1
2018-03-20T07:35:32.218Z,1021.2
2018-03-20T07:40:31.957Z,1021.2
2018-03-20T07:45:32.107Z,1021.3
2018-03-20T07:50:32.203Z,1021.4
2018-03-20T07:55:32.231Z,1021.5
2018-03-20T08:00:31.943Z,1021.5
2018-03-20T08:05:32.191Z,1021.6
2018-03-20T08:10:32.213Z,1021.7
2018-03-20T08:15:32.147Z,1021.8
2018-03-20T08:20:32.091Z,1021.9
2018-03-20T08:25:32.151Z,1021.9
2018-03-20T08:30:31.920Z,1022.1
2018-03-20T08:35:32.049Z,1022.2
2018-03-20T08:40:31.976Z,1022.2
2018-03-20T08:45:32.184Z,1022.3
2018-03-20T08:50:31.986Z,1022.4
2018-03-20T08:55:31.901Z,1022.5
2018-03-20T09:00:32.220Z,1022.5
2018-03-20T09:05:31.868Z,1022.7
2018-03-20T09:10:32.074Z,1022.7
2018-03-20T09:15:32.130Z,1022.8
2018-03-20T09:20:31.943Z,1022.9
2018-03-20T09:25:32.074Z,1023
2018-03-20T09:30:31.946Z,1023.1
2018-03-20T09:35:32.100Z,1023.2
2018-03-20T09:40:31.912Z,1023.3
2018-03-20T09:45:32.106Z,1023.3
2018-03-20T09:50:32.036Z,1023.4
2018-03-20T09:55:31.898Z,1023.5
2018-03-20T10:00:31.981Z,1023.6
2018-03-20T10:05:31.750Z,1023.7
2018-03-20T10:10:31.975Z,1023.8
2018-03-20T10:15:31.849Z,1024
2018-03-20T10:20:31.999Z,1024
2018-03-20T10:25:31.734Z,1024
2018-03-20T10:30:31.810Z,1024.2
2018-03-20T10:35:32.073Z,1024.2
2018-03-20T10:40:31.725Z,1024.2
2018-03-20T10:45:31.781Z,1024.2
2018-03-20T10:50:31.917Z,1024.3
2018-03-20T10:55:31.877Z,1024.3
2018-03-20T11:00:31.775Z,1024.3
2018-03-20T11:05:31.873Z,1024.4
2018-03-20T11:10:31.684Z,1024.3
2018-03-20T11:15:32.126Z,1024.4
2018-03-20T11:20:31.894Z,1024.4
2018-03-20T11:25:31.810Z,1024.5
2018-03-20T11:30:31.637Z,1024.5
2018-03-20T11:35:31.621Z,1024.7
2018-03-20T11:40:31.936Z,1024.6
2018-03-20T11:45:31.896Z,1024.7
2018-03-20T11:50:31.755Z,1024.7
2018-03-20T11:55:31.904Z,1024.9
2018-03-20T12:00:31.586Z,1024.9
2018-03-20T12:05:31.690Z,1025
2018-03-20T12:10:31.910Z,1025.1
2018-03-20T12:15:31.707Z,1025.1
2018-03-20T12:20:31.811Z,1025.3
2018-03-20T12:25:31.638Z,1025.5
2018-03-20T12:30:31.518Z,1025.4
2018-03-20T12:35:31.687Z,1025.5
2018-03-20T12:40:31.587Z,1025.5
2018-03-20T12:45:31.571Z,1025.6
2018-03-20T12:50:31.624Z,1025.6
2018-03-20T12:55:31.715Z,1025.7
2018-03-20T13:00:31.768Z,1025.6
2018-03-20T13:05:31.808Z,1025.7
2018-03-20T13:10:31.497Z,1025.7
2018-03-20T13:15:31.816Z,1025.7
2018-03-20T13:20:31.731Z,1025.7
2018-03-20T13:25:31.519Z,1025.7
2018-03-20T13:30:31.713Z,1025.7
2018-03-20T13:35:31.545Z,1025.8
2018-03-20T13:40:31.718Z,1026
2018-03-20T13:45:31.395Z,1025.9
2018-03-20T13:50:31.615Z,1025.9
2018-03-20T13:55:31.420Z,1025.9
2018-03-20T14:00:31.515Z,1025.9
2018-03-20T14:05:31.558Z,1026
2018-03-20T14:10:31.662Z,1026
2018-03-20T14:15:31.395Z,1026.2
2018-03-20T14:20:31.404Z,1026
2018-03-20T14:25:31.559Z,1026.1
2018-03-20T14:30:31.428Z,1026.1
2018-03-20T14:35:31.538Z,1026.2
2018-03-20T14:40:31.665Z,1026.3
2018-03-20T14:45:31.362Z,1026.3
2018-03-20T14:50:31.586Z,1026.4
2018-03-20T14:55:31.302Z,1026.5
2018-03-20T15:00:31.475Z,1026.5
2018-03-20T15:05:31.433Z,1026.6
2018-03-20T15:10:31.423Z,1026.6
2018-03-20T15:15:31.585Z,1026.7
2018-03-20T15:20:31.332Z,1026.8
2018-03-20T15:25:31.465Z,1026.8
2018-03-20T15:30:31.543Z,1026.9
2018-03-20T15:35:31.693Z,1026.8
2018-03-20T15:40:31.585Z,1026.9
2018-03-20T15:45:31.443Z,1027
2018-03-20T15:50:31.276Z,1027
2018-03-20T15:55:31.439Z,1027
2018-03-20T16:00:31.380Z,1027
2018-03-20T16:05:31.205Z,1027
2018-03-20T16:10:31.568Z,1027.1
2018-03-20T16:15:31.310Z,1027.2
2018-03-20T16:20:31.446Z,1027.3
2018-03-20T16:25:31.420Z,1027.4
2018-03-20T16:30:31.166Z,1027.3
2018-03-20T16:35:31.332Z,1027.4
2018-03-20T16:40:31.286Z,1027.5
2018-03-20T16:45:31.442Z,1027.6
2018-03-20T16:50:31.364Z,1027.7
2018-03-20T16:55:31.118Z,1027.8
2018-03-20T17:00:31.461Z,1027.8
2018-03-20T17:05:31.178Z,1027.9
2018-03-20T17:10:31.113Z,1028
2018-03-20T17:15:31.291Z,1028.1
2018-03-20T17:20:31.419Z,1028.1
2018-03-20T17:25:31.312Z,1028.1
2018-03-20T17:30:31.467Z,1028.2
2018-03-20T17:35:31.052Z,1028.2
2018-03-20T17:40:31.370Z,1028.3
2018-03-20T17:45:31.249Z,1028.3
2018-03-20T17:50:31.130Z,1028.4
2018-03-20T17:55:31.338Z,1028.4
2018-03-20T18:00:31.257Z,1028.4
2018-03-20T18:05:31.008Z,1028.5
2018-03-20T18:10:31.435Z,1028.6
2018-03-20T18:15:30.954Z,1028.6
2018-03-20T18:20:31.223Z,1028.7
2018-03-20T18:25:31.018Z,1028.8
2018-03-20T18:30:31.074Z,1028.8
2018-03-20T18:35:31.467Z,1028.9
2018-03-20T18:40:31.050Z,1029
2018-03-20T18:45:30.978Z,1029.1
2018-03-20T18:50:31.289Z,1029.1
2018-03-20T18:55:30.915Z,1029.2
2018-03-20T19:00:31.298Z,1029.2
2018-03-20T19:05:30.901Z,1029.3
2018-03-20T19:10:31.192Z,1029.3
2018-03-20T19:15:31.003Z,1029.3
2018-03-20T19:20:31.199Z,1029.3
2018-03-20T19:25:31.257Z,1029.4
2018-03-20T19:30:31.039Z,1029.5
2018-03-20T19:35:31.094Z,1029.6
2018-03-20T19:40:31.250Z,1029.6
2018-03-20T19:45:31.041Z,1029.6
2018-03-20T19:50:31.231Z,1029.7
2018-03-20T19:55:30.947Z,1029.8
2018-03-20T20:00:31.037Z,1029.9
2018-03-20T20:05:31.141Z,1030
2018-03-20T20:10:31.154Z,1030
2018-03-20T20:15:31.032Z,1030.1
2018-03-20T20:20:30.958Z,1030.1
2018-03-20T20:25:30.871Z,1030.2
2018-03-20T20:30:31.104Z,1030.2
2018-03-20T20:35:31.079Z,1030.2
2018-03-20T20:40:31.290Z,1030.4
2018-03-20T20:45:31.221Z,1030.4
2018-03-20T20:50:30.929Z,1030.4
2018-03-20T20:55:30.978Z,1030.5
2018-03-20T21:00:30.859Z,1030.4
2018-03-20T21:16:02.524Z,1030.4
2018-03-20T21:21:01.103Z,1030.5
2018-03-20T21:26:04.096Z,1030.5
2018-03-20T21:31:01.442Z,1030.5
2018-03-20T21:36:02.775Z,1030.5
2018-03-20T21:41:01.179Z,1030.5
2018-03-20T21:46:05.789Z,1030.5
2018-03-20T21:51:01.319Z,1030.5
2018-03-20T21:56:01.389Z,1030.5
2018-03-20T22:01:03.721Z,1030.5
2018-03-20T22:06:02.719Z,1030.5
2018-03-20T22:11:01.508Z,1030.5
2018-03-20T22:16:01.144Z,1030.5
2018-03-20T22:21:01.112Z,1030.6
2018-03-20T22:26:01.061Z,1030.6
2018-03-20T22:31:01.224Z,1030.7
2018-03-20T22:36:01.190Z,1030.8
2018-03-20T22:41:01.226Z,1030.8
2018-03-20T22:46:01.543Z,1030.8
2018-03-20T22:51:00.818Z,1030.8
2018-03-20T22:56:01.082Z,1030.9
2018-03-20T23:01:01.343Z,1030.9
2018-03-20T23:06:01.047Z,1030.9
2018-03-20T23:11:00.947Z,1030.9
2018-03-20T23:16:01.002Z,1030.9
2018-03-20T23:21:01.262Z,1030.9
2018-03-20T23:26:00.669Z,1030.9
2018-03-20T23:31:01.220Z,1030.9
2018-03-20T23:36:00.634Z,1030.9
2018-03-20T23:41:01.021Z,1030.9
2018-03-20T23:46:00.563Z,1030.9
2018-03-20T23:51:00.715Z,1030.9
2018-03-20T23:56:01.059Z,1030.9
